createdAt,value
2023-05-07T00:01:31.992Z,101958.41
2023-05-07T00:04:00.973Z,101960.09
2023-05-07T00:06:34.585Z,101961.75
2023-05-07T00:09:05.189Z,101952.88
2023-05-07T00:11:34.966Z,101953.72
2023-05-07T00:14:13.024Z,101959.25
2023-05-07T00:16:41.616Z,101959.34
2023-05-07T00:19:34.220Z,101953.25
2023-05-07T00:22:32.650Z,101954.75
2023-05-07T00:25:01.490Z,101959.63
2023-05-07T00:30:02.741Z,101956.84
2023-05-07T00:32:35.745Z,101958.84
2023-05-07T00:35:04.263Z,101954.66
2023-05-07T00:37:34.109Z,101963.91
2023-05-07T00:40:05.824Z,101959.31
2023-05-07T00:42:34.272Z,101951.91
2023-05-07T00:45:05.263Z,101957.88
2023-05-07T00:47:37.439Z,101957.88
2023-05-07T00:50:07.613Z,101955.50
2023-05-07T00:52:36.375Z,101954.06
2023-05-07T00:55:27.258Z,101961.31
2023-05-07T00:58:24.163Z,101960.25
2023-05-07T01:00:52.581Z,101959.22
2023-05-07T01:03:27.613Z,101954.75
2023-05-07T01:06:32.661Z,101963.63
2023-05-07T01:09:31.279Z,101965.69
2023-05-07T01:12:00.990Z,101953.31
2023-05-07T01:14:40.226Z,101960.19
2023-05-07T01:17:11.643Z,101965.34
2023-05-07T01:19:40.444Z,101962.56
2023-05-07T01:22:17.969Z,101961.59
2023-05-07T01:24:46.521Z,101962.38
2023-05-07T01:27:33.759Z,101965.81
2023-05-07T01:30:11.927Z,101967.53
2023-05-07T01:32:53.283Z,101968.28
2023-05-07T01:35:29.802Z,101972.78
2023-05-07T01:38:02.228Z,101974.81
2023-05-07T01:40:38.052Z,101972.28
2023-05-07T01:43:07.615Z,101966.19
2023-05-07T01:45:37.256Z,101973.25
2023-05-07T01:48:06.698Z,101963.44
2023-05-07T01:50:38.973Z,101967.72
2023-05-07T01:53:07.356Z,101963.94
2023-05-07T01:55:41.914Z,101965.63
2023-05-07T01:58:10.256Z,101962.84
2023-05-07T02:00:38.585Z,101968.19
2023-05-07T02:03:07.449Z,101974.44
2023-05-07T02:05:38.574Z,101967.16
2023-05-07T02:08:07.471Z,101970.63
2023-05-07T02:10:39.542Z,101969.75
2023-05-07T02:13:08.057Z,101978.78
2023-05-07T02:15:39.007Z,101984.13
2023-05-07T02:18:10.095Z,101980.63
2023-05-07T02:20:39.070Z,101977.19
2023-05-07T02:23:07.319Z,101975.47
2023-05-07T02:25:35.766Z,101984.50
2023-05-07T02:28:10.128Z,101990.91
2023-05-07T02:30:39.549Z,101988.31
2023-05-07T02:33:09.281Z,101981.47
2023-05-07T02:35:39.671Z,101993.19
2023-05-07T02:38:10.925Z,101988.88
2023-05-07T02:40:42.331Z,101994.41
2023-05-07T02:43:11.672Z,101995.34
2023-05-07T02:45:39.963Z,102000.97
2023-05-07T02:48:12.471Z,102002.19
2023-05-07T02:50:47.134Z,102005.03
2023-05-07T02:53:17.940Z,102002.66
2023-05-07T02:55:46.642Z,102009.78
2023-05-07T02:58:14.889Z,102009.88
2023-05-07T03:00:43.196Z,102007.28
2023-05-07T03:03:12.767Z,102003.16
2023-05-07T03:05:41.267Z,102014.91
2023-05-07T03:08:10.399Z,102017.56
2023-05-07T03:10:41.705Z,102018.09
2023-05-07T03:13:09.871Z,102015.09
2023-05-07T03:15:41.348Z,102016.50
2023-05-07T03:18:12.504Z,102019.16
2023-05-07T03:20:40.565Z,102027.31
2023-05-07T03:23:12.050Z,102023.88
2023-05-07T03:25:40.302Z,102024.16
2023-05-07T03:28:08.823Z,102032.16
2023-05-07T03:30:37.326Z,102029.38
2023-05-07T03:35:38.632Z,102033.22
2023-05-07T03:38:10.185Z,102036.69
2023-05-07T03:40:42.212Z,102028.91
2023-05-07T03:43:10.887Z,102043.22
2023-05-07T03:45:39.150Z,102035.34
2023-05-07T03:48:10.660Z,102041.84
2023-05-07T03:50:42.779Z,102044.81
2023-05-07T03:53:13.418Z,102042.84
2023-05-07T03:55:41.761Z,102040.50
2023-05-07T03:58:10.282Z,102055.72
2023-05-07T04:00:40.980Z,102035.19
2023-05-07T04:03:10.772Z,102046.94
2023-05-07T04:05:42.798Z,102050.81
2023-05-07T04:08:13.896Z,102054.75
2023-05-07T04:10:42.412Z,102055.91
2023-05-07T04:13:13.919Z,102051.84
2023-05-07T04:15:45.375Z,102052.09
2023-05-07T04:18:13.925Z,102055.19
2023-05-07T04:20:45.064Z,102056.09
2023-05-07T04:23:13.503Z,102053.44
2023-05-07T04:25:45.097Z,102053.44
2023-05-07T04:28:14.383Z,102060.59
2023-05-07T04:30:45.913Z,102054.28
2023-05-07T04:33:14.397Z,102058.53
2023-05-07T04:35:42.763Z,102054.13
2023-05-07T04:38:14.370Z,102056.78
2023-05-07T04:40:45.699Z,102058.69
2023-05-07T04:43:14.106Z,102059.88
2023-05-07T04:45:45.750Z,102063.41
2023-05-07T04:48:16.486Z,102064.94
2023-05-07T04:50:44.770Z,102061.34
2023-05-07T04:53:13.038Z,102058.59
2023-05-07T04:55:41.365Z,102068.75
2023-05-07T04:58:15.808Z,102071.47
2023-05-07T05:00:44.417Z,102068.97
2023-05-07T05:03:13.105Z,102068.09
2023-05-07T05:05:44.369Z,102070.28
2023-05-07T05:08:15.884Z,102067.78
2023-05-07T05:10:45.226Z,102063.72
2023-05-07T05:13:16.762Z,102074.69
2023-05-07T05:15:45.326Z,102072.41
2023-05-07T05:18:14.168Z,102076.28
2023-05-07T05:20:45.643Z,102081.97
2023-05-07T05:23:16.324Z,102091.41
2023-05-07T05:25:45.003Z,102093.69
2023-05-07T05:28:13.804Z,102095.69
2023-05-07T05:30:45.180Z,102091.38
2023-05-07T05:33:16.756Z,102093.56
2023-05-07T05:35:45.182Z,102092.81
2023-05-07T05:38:13.881Z,102096.38
2023-05-07T05:40:42.827Z,102094.56
2023-05-07T05:43:14.122Z,102097.13
2023-05-07T05:45:46.171Z,102096.22
2023-05-07T05:48:14.654Z,102104.34
2023-05-07T05:50:44.470Z,102103.47
2023-05-07T05:53:15.372Z,102101.81
2023-05-07T05:55:46.723Z,102097.66
2023-05-07T05:58:14.611Z,102095.41
2023-05-07T06:00:46.719Z,102093.75
2023-05-07T06:03:15.165Z,102102.59
2023-05-07T06:05:43.682Z,102092.44
2023-05-07T06:08:15.292Z,102101.81
2023-05-07T06:10:46.783Z,102097.06
2023-05-07T06:13:18.264Z,102103.03
2023-05-07T06:15:46.685Z,102101.31
2023-05-07T06:18:17.983Z,102105.19
2023-05-07T06:20:46.308Z,102098.59
2023-05-07T06:23:17.802Z,102115.69
2023-05-07T06:26:03.427Z,102106.25
2023-05-07T06:28:46.232Z,102102.09
2023-05-07T06:31:20.006Z,102103.31
2023-05-07T06:33:49.451Z,102104.38
2023-05-07T06:36:17.757Z,102100.13
2023-05-07T06:38:46.164Z,102101.06
2023-05-07T06:41:17.684Z,102099.41
2023-05-07T06:43:46.126Z,102101.28
2023-05-07T06:46:18.036Z,102103.00
2023-05-07T06:48:46.458Z,102098.63
2023-05-07T06:51:17.624Z,102098.81
2023-05-07T06:53:45.900Z,102103.56
2023-05-07T06:56:16.556Z,102104.75
2023-05-07T06:58:48.133Z,102099.59
2023-05-07T07:01:17.092Z,102096.03
2023-05-07T07:03:47.660Z,102095.19
2023-05-07T07:06:18.473Z,102094.44
2023-05-07T07:08:46.887Z,102097.06
2023-05-07T07:11:17.817Z,102089.09
2023-05-07T07:13:48.926Z,102090.00
2023-05-07T07:16:17.300Z,102089.09
2023-05-07T07:18:45.573Z,102091.09
2023-05-07T07:21:16.115Z,102093.50
2023-05-07T07:23:47.387Z,102089.09
2023-05-07T07:26:16.041Z,102087.53
2023-05-07T07:28:48.409Z,102090.16
2023-05-07T07:31:17.039Z,102092.41
2023-05-07T07:33:53.265Z,102094.63
2023-05-07T07:36:23.384Z,102098.47
2023-05-07T07:38:52.034Z,102095.03
2023-05-07T07:41:21.490Z,102091.53
2023-05-07T07:43:49.997Z,102095.31
2023-05-07T07:46:18.413Z,102096.22
2023-05-07T07:48:46.744Z,102091.69
2023-05-07T07:51:18.314Z,102100.41
2023-05-07T07:53:49.376Z,102098.47
2023-05-07T07:56:17.655Z,102086.06
2023-05-07T07:58:48.796Z,102089.59
2023-05-07T08:01:19.539Z,102085.19
2023-05-07T08:03:47.870Z,102087.97
2023-05-07T08:06:17.217Z,102083.06
2023-05-07T08:08:48.366Z,102083.22
2023-05-07T08:11:19.512Z,102084.19
2023-05-07T08:13:48.507Z,102088.75
2023-05-07T08:16:17.265Z,102077.22
2023-05-07T08:18:48.589Z,102075.31
2023-05-07T08:21:17.272Z,102068.47
2023-05-07T08:23:48.554Z,102071.72
2023-05-07T08:26:21.092Z,102069.13
2023-05-07T08:28:49.365Z,102073.78
2023-05-07T08:31:18.300Z,102069.53
2023-05-07T08:33:49.193Z,102065.13
2023-05-07T08:36:17.488Z,102070.44
2023-05-07T08:38:48.657Z,102066.75
2023-05-07T08:41:19.950Z,102069.31
2023-05-07T08:43:52.256Z,102065.81
2023-05-07T08:46:22.580Z,102063.94
2023-05-07T08:48:54.185Z,102065.63
2023-05-07T08:51:23.727Z,102061.28
2023-05-07T08:53:52.586Z,102065.81
2023-05-07T08:56:22.645Z,102067.06
2023-05-07T08:58:51.511Z,102066.25
2023-05-07T09:01:20.482Z,102061.34
2023-05-07T09:03:49.474Z,102071.47
2023-05-07T09:06:19.492Z,102075.31
2023-05-07T09:08:55.534Z,102071.09
2023-05-07T09:11:32.433Z,102068.66
2023-05-07T09:14:18.431Z,102067.94
2023-05-07T09:16:48.579Z,102058.31
2023-05-07T09:19:17.053Z,102066.41
2023-05-07T09:21:46.561Z,102062.91
2023-05-07T09:24:33.414Z,102057.47
2023-05-07T09:27:05.651Z,102063.75
2023-05-07T09:29:50.217Z,102059.22
2023-05-07T09:32:19.253Z,102062.75
2023-05-07T09:34:49.038Z,102065.41
2023-05-07T09:37:19.846Z,102059.22
2023-05-07T09:39:50.319Z,102060.31
2023-05-07T09:42:33.247Z,102055.91
2023-05-07T09:45:13.655Z,102054.38
2023-05-07T09:47:49.884Z,102057.34
2023-05-07T09:50:27.193Z,102054.13
2023-05-07T09:53:01.981Z,102055.16
2023-05-07T09:55:44.903Z,102051.84
2023-05-07T09:58:26.296Z,102058.97
2023-05-07T10:00:55.882Z,102058.25
2023-05-07T10:03:53.863Z,102062.72
2023-05-07T10:06:37.623Z,102065.44
2023-05-07T10:09:13.520Z,102062.66
2023-05-07T10:11:45.908Z,102057.38
2023-05-07T10:14:34.031Z,102055.66
2023-05-07T10:17:23.574Z,102063.75
2023-05-07T10:19:55.401Z,102063.75
2023-05-07T10:22:26.756Z,102072.59
2023-05-07T10:24:58.550Z,102062.00
2023-05-07T10:27:34.749Z,102054.84
2023-05-07T10:30:42.511Z,102053.00
2023-05-07T10:33:14.082Z,102045.19
2023-05-07T10:35:50.029Z,102045.97
2023-05-07T10:38:46.585Z,102052.13
2023-05-07T10:41:22.263Z,102045.91
2023-05-07T10:43:50.892Z,102039.81
2023-05-07T10:46:33.861Z,102039.06
2023-05-07T10:49:11.061Z,102032.97
2023-05-07T10:51:40.507Z,102044.34
2023-05-07T10:54:20.396Z,102049.66
2023-05-07T10:56:52.932Z,102045.28
2023-05-07T10:59:38.277Z,102042.75
2023-05-07T11:02:18.645Z,102039.31
2023-05-07T11:05:23.179Z,102038.44
2023-05-07T11:08:11.576Z,102034.97
2023-05-07T11:11:03.257Z,102029.78
2023-05-07T11:13:51.335Z,102042.38
2023-05-07T11:16:32.149Z,102034.44
2023-05-07T11:19:00.527Z,102032.75
2023-05-07T11:21:48.284Z,102023.00
2023-05-07T11:24:20.865Z,102031.00
2023-05-07T11:26:52.353Z,102032.75
2023-05-07T11:29:28.819Z,102018.69
2023-05-07T11:31:58.057Z,102026.47
2023-05-07T11:34:44.784Z,102023.69
2023-05-07T11:37:27.879Z,102014.00
2023-05-07T11:40:42.189Z,102015.88
2023-05-07T11:43:27.851Z,102014.31
2023-05-07T11:45:56.354Z,102018.78
2023-05-07T11:48:29.594Z,102012.75
2023-05-07T11:51:29.510Z,102013.75
2023-05-07T11:53:57.804Z,102016.72
2023-05-07T11:56:31.451Z,102011.63
2023-05-07T11:58:59.859Z,102020.50
2023-05-07T12:01:31.511Z,102010.88
2023-05-07T12:04:01.638Z,102018.78
2023-05-07T12:06:36.432Z,102017.09
2023-05-07T12:09:13.751Z,102024.19
2023-05-07T12:11:46.121Z,102011.81
2023-05-07T12:14:24.542Z,102016.06
2023-05-07T12:16:53.904Z,102014.91
2023-05-07T12:19:22.754Z,102013.75
2023-05-07T12:21:51.236Z,102004.00
2023-05-07T12:24:25.968Z,102012.00
2023-05-07T12:26:54.893Z,102007.81
2023-05-07T12:29:29.340Z,102009.63
2023-05-07T12:31:57.988Z,102005.22
2023-05-07T12:34:45.955Z,102019.44
2023-05-07T12:37:20.397Z,102022.28
2023-05-07T12:40:16.644Z,102017.09
2023-05-07T12:42:50.773Z,102010.19
2023-05-07T12:45:19.239Z,102012.91
2023-05-07T12:47:50.909Z,102015.47
2023-05-07T12:50:23.264Z,102011.91
2023-05-07T12:52:51.683Z,102015.47
2023-05-07T12:55:25.106Z,102019.13
2023-05-07T12:57:54.936Z,102013.91
2023-05-07T13:00:52.996Z,102013.13
2023-05-07T13:03:30.199Z,102006.09
2023-05-07T13:06:11.250Z,102008.75
2023-05-07T13:08:48.827Z,102009.63
2023-05-07T13:11:38.060Z,102014.88
2023-05-07T13:14:22.678Z,102014.09
2023-05-07T13:16:51.534Z,102016.84
2023-05-07T13:19:31.526Z,102017.75
2023-05-07T13:22:00.154Z,102011.50
2023-05-07T13:24:43.790Z,102020.28
2023-05-07T13:30:38.522Z,102025.69
2023-05-07T13:33:19.478Z,102031.50
2023-05-07T13:35:51.088Z,102035.53
2023-05-07T13:38:34.064Z,102038.38
2023-05-07T13:41:02.371Z,102033.41
2023-05-07T13:43:35.595Z,102032.28
2023-05-07T13:46:04.023Z,102034.50
2023-05-07T13:48:32.561Z,102040.47
2023-05-07T13:51:00.848Z,102034.25
2023-05-07T13:53:52.477Z,102043.06
2023-05-07T13:56:23.966Z,102044.88
2023-05-07T13:58:59.504Z,102043.25
2023-05-07T14:01:29.792Z,102046.03
2023-05-07T14:03:59.956Z,102052.56
2023-05-07T14:06:34.653Z,102045.59
2023-05-07T14:09:03.448Z,102063.19
2023-05-07T14:11:36.125Z,102056.03
2023-05-07T14:14:07.696Z,102053.28
2023-05-07T14:16:42.749Z,102057.50
2023-05-07T14:19:14.277Z,102069.84
2023-05-07T14:21:42.240Z,102067.94
2023-05-07T14:24:10.602Z,102068.00
2023-05-07T14:26:41.557Z,102072.56
2023-05-07T14:29:10.047Z,102082.25
2023-05-07T14:31:38.915Z,102077.63
2023-05-07T14:34:07.520Z,102076.56
2023-05-07T14:36:35.801Z,102071.13
2023-05-07T14:39:04.288Z,102067.50
2023-05-07T14:41:33.580Z,102069.13
2023-05-07T14:44:01.818Z,102076.75
2023-05-07T14:46:30.125Z,102079.06
2023-05-07T14:49:01.322Z,102082.16
2023-05-07T14:51:30.457Z,102083.56
2023-05-07T14:53:58.968Z,102081.47
2023-05-07T14:56:29.602Z,102076.66
2023-05-07T14:58:57.924Z,102077.22
2023-05-07T15:01:28.026Z,102079.50
2023-05-07T15:03:57.076Z,102075.72
2023-05-07T15:06:25.752Z,102083.53
2023-05-07T15:08:54.109Z,102078.78
2023-05-07T15:11:22.482Z,102072.34
2023-05-07T15:13:52.662Z,102082.81
2023-05-07T15:16:21.569Z,102078.25
2023-05-07T15:18:57.517Z,102082.44
2023-05-07T15:21:34.955Z,102083.81
2023-05-07T15:24:03.851Z,102090.66
2023-05-07T15:26:32.102Z,102088.63
2023-05-07T15:29:00.465Z,102092.75
2023-05-07T15:31:53.720Z,102093.13
2023-05-07T15:34:22.811Z,102091.81
2023-05-07T15:36:54.392Z,102093.97
2023-05-07T15:39:25.495Z,102097.00
2023-05-07T15:41:53.736Z,102100.94
2023-05-07T15:44:29.216Z,102097.97
2023-05-07T15:46:57.438Z,102100.38
2023-05-07T15:49:25.621Z,102102.72
2023-05-07T15:51:55.871Z,102101.56
2023-05-07T15:54:25.008Z,102100.25
2023-05-07T15:56:54.091Z,102100.53
2023-05-07T15:59:22.595Z,102109.88
2023-05-07T16:01:51.293Z,102102.19
2023-05-07T16:04:24.581Z,102098.06
2023-05-07T16:06:57.647Z,102103.06
2023-05-07T16:09:26.602Z,102101.81
2023-05-07T16:11:55.198Z,102109.22
2023-05-07T16:14:24.126Z,102105.78
2023-05-07T16:16:56.838Z,102103.16
2023-05-07T16:19:25.945Z,102096.53
2023-05-07T16:21:54.507Z,102107.06
2023-05-07T16:24:23.152Z,102107.66
2023-05-07T16:26:51.481Z,102110.00
2023-05-07T16:29:25.807Z,102103.69
2023-05-07T16:31:58.689Z,102102.28
2023-05-07T16:34:26.977Z,102095.16
2023-05-07T16:36:55.312Z,102095.75
2023-05-07T16:39:25.506Z,102096.94
2023-05-07T16:41:56.468Z,102103.56
2023-05-07T16:44:24.815Z,102098.88
2023-05-07T16:46:56.718Z,102101.41
2023-05-07T16:49:28.041Z,102093.81
2023-05-07T16:51:59.854Z,102101.38
2023-05-07T16:54:28.329Z,102106.25
2023-05-07T16:56:56.668Z,102101.00
2023-05-07T17:01:02.680Z,102104.34
2023-05-07T17:02:27.315Z,102095.19
2023-05-07T17:04:55.994Z,102099.97
2023-05-07T17:10:26.932Z,102090.38
2023-05-07T17:12:58.549Z,102095.38
2023-05-07T17:18:27.055Z,102093.91
2023-05-07T17:20:58.365Z,102096.97
2023-05-07T17:23:26.704Z,102104.91
2023-05-07T17:25:56.934Z,102101.50
2023-05-07T17:28:28.343Z,102099.59
2023-05-07T17:30:56.868Z,102099.03
2023-05-07T17:33:56.162Z,102110.97
2023-05-07T17:36:28.345Z,102102.72
2023-05-07T17:38:59.849Z,102099.69
2023-05-07T17:41:28.692Z,102099.88
2023-05-07T17:43:57.031Z,102098.22
2023-05-07T17:46:27.336Z,102096.50
2023-05-07T17:48:58.838Z,102095.75
2023-05-07T17:51:27.443Z,102097.53
2023-05-07T17:54:00.279Z,102099.00
2023-05-07T17:56:28.644Z,102094.25
2023-05-07T17:58:59.825Z,102096.72
2023-05-07T18:01:27.817Z,102098.16
2023-05-07T18:03:59.364Z,102093.28
2023-05-07T18:06:27.782Z,102100.16
2023-05-07T18:08:58.791Z,102099.41
2023-05-07T18:11:30.331Z,102096.16
2023-05-07T18:13:58.721Z,102098.06
2023-05-07T18:22:06.090Z,102092.84
2023-05-07T18:25:08.127Z,102089.28
2023-05-07T18:28:00.888Z,102090.38
2023-05-07T18:30:59.859Z,102100.03
2023-05-07T18:33:30.886Z,102093.56
2023-05-07T18:36:01.920Z,102086.28
2023-05-07T18:41:20.392Z,102090.06
2023-05-07T18:44:01.233Z,102086.78
2023-05-07T18:46:44.149Z,102081.53
2023-05-07T18:49:30.876Z,102082.03
2023-05-07T18:52:02.343Z,102093.06
2023-05-07T18:54:30.678Z,102084.09
2023-05-07T18:57:02.134Z,102085.63
2023-05-07T18:59:32.788Z,102080.09
2023-05-07T19:02:01.155Z,102086.28
2023-05-07T19:04:31.153Z,102086.47
2023-05-07T19:07:02.547Z,102082.28
2023-05-07T19:10:19.760Z,102086.28
2023-05-07T19:13:00.506Z,102079.34
2023-05-07T19:15:34.381Z,102087.06
2023-05-07T19:18:03.470Z,102087.63
2023-05-07T19:20:31.941Z,102086.38
2023-05-07T19:23:04.147Z,102084.84
2023-05-07T19:28:36.190Z,102089.34
2023-05-07T19:34:03.208Z,102092.72
2023-05-07T19:39:32.157Z,102095.41
2023-05-07T19:42:03.697Z,102078.44
2023-05-07T19:44:32.061Z,102084.38
2023-05-07T19:47:04.521Z,102096.63
2023-05-07T19:49:32.909Z,102096.97
2023-05-07T19:52:04.019Z,102093.81
2023-05-07T19:54:32.533Z,102090.38
2023-05-07T19:57:04.703Z,102088.44
2023-05-07T19:59:33.036Z,102090.63
2023-05-07T20:02:04.557Z,102083.41
2023-05-07T20:07:35.205Z,102096.00
2023-05-07T20:10:03.583Z,102091.75
2023-05-07T20:12:33.094Z,102086.63
2023-05-07T20:15:04.797Z,102089.88
2023-05-07T20:17:33.050Z,102081.41
2023-05-07T20:20:04.803Z,102078.50
2023-05-07T20:22:34.173Z,102082.69
2023-05-07T20:25:07.111Z,102078.66
2023-05-07T20:27:36.123Z,102076.28
2023-05-07T20:30:04.391Z,102079.53
2023-05-07T20:32:36.155Z,102077.13
2023-05-07T20:35:06.568Z,102080.59
2023-05-07T20:37:36.707Z,102082.84
2023-05-07T20:40:05.448Z,102083.72
2023-05-07T20:42:37.267Z,102087.03
2023-05-07T20:45:06.086Z,102077.78
2023-05-07T20:47:34.829Z,102091.00
2023-05-07T20:50:06.298Z,102093.34
2023-05-07T20:52:37.703Z,102075.31
2023-05-07T20:55:06.425Z,102087.72
2023-05-07T20:57:35.207Z,102078.38
2023-05-07T21:00:07.786Z,102078.28
2023-05-07T21:02:37.216Z,102086.31
2023-05-07T21:06:10.322Z,102080.06
2023-05-07T21:11:19.926Z,102075.91
2023-05-07T21:14:06.597Z,102075.47
2023-05-07T21:16:36.916Z,102082.22
2023-05-07T21:19:08.256Z,102074.28
2023-05-07T21:21:36.778Z,102072.13
2023-05-07T21:24:09.778Z,102074.94
2023-05-07T21:29:35.818Z,102083.75
2023-05-07T21:32:07.319Z,102077.28
2023-05-07T21:34:50.741Z,102085.97
2023-05-07T21:42:37.333Z,102081.09
2023-05-07T21:45:08.952Z,102080.16
2023-05-07T21:50:38.105Z,102074.22
2023-05-07T21:53:10.022Z,102065.53
2023-05-07T21:55:38.338Z,102073.38
2023-05-07T21:58:09.748Z,102071.31
2023-05-07T22:07:10.102Z,102087.44
2023-05-07T22:09:39.089Z,102079.72
2023-05-07T22:12:10.355Z,102064.41
2023-05-07T22:14:39.690Z,102060.44
2023-05-07T22:17:10.921Z,102055.44
2023-05-07T22:19:40.234Z,102058.78
2023-05-07T22:24:41.266Z,102052.81
2023-05-07T22:27:12.929Z,102059.03
2023-05-07T22:30:19.291Z,102052.72
2023-05-07T22:33:11.227Z,102047.25
2023-05-07T22:35:46.699Z,102048.97
2023-05-07T22:38:15.554Z,102042.31
2023-05-07T22:44:10.626Z,102043.25
2023-05-07T22:46:41.578Z,102037.22
2023-05-07T22:49:11.179Z,102034.56
2023-05-07T22:51:42.291Z,102032.84
2023-05-07T22:56:46.673Z,102024.72
2023-05-07T22:59:15.177Z,102024.03
2023-05-07T23:01:59.012Z,102018.78
2023-05-07T23:05:10.268Z,102022.53
2023-05-07T23:07:56.145Z,102021.44
2023-05-07T23:10:37.165Z,102023.53
2023-05-07T23:13:30.460Z,102016.66
2023-05-07T23:16:11.976Z,102005.22
2023-05-07T23:19:06.509Z,102005.31
2023-05-07T23:21:42.447Z,102012.03
2023-05-07T23:24:13.805Z,102000.41
2023-05-07T23:26:55.578Z,102004.44
2023-05-07T23:29:24.533Z,101999.28
2023-05-07T23:34:40.282Z,101992.59
2023-05-07T23:37:14.478Z,101993.66
2023-05-07T23:40:14.781Z,101982.56
2023-05-07T23:46:23.435Z,101980.00
2023-05-07T23:49:21.487Z,101981.53
2023-05-07T23:52:15.164Z,101972.25
2023-05-07T23:58:22.462Z,101983.72
